Time;durP1;ratioP1;P1;durP2;ratioP2;P2;SDS_P1;SDS_P2;PMS_P1;PMS_P2;Temp;Humidity;BMP_temperature;BMP_pressure;BME280_temperature;BME280_humidity;BME280_pressure;Samples;Min_cycle;Max_cycle;Signal;HPM_P1;HPM_P2
2024/03/14 00:00:30;;;;;;;35.00;24.00;;;;;;;4.39;100.00;96691.92;109044;1272;22748;-74
2024/03/14 00:03:19;;;;;;;30.50;21.70;;;;;;;4.40;100.00;96689.15;109026;1272;22540;-74
2024/03/14 00:05:47;;;;;;;30.50;21.00;;;;;;;4.43;100.00;96691.26;109022;1272;24251;-74
2024/03/14 00:08:18;;;;;;;31.10;22.70;;;;;;;4.46;100.00;96685.63;108997;1272;22519;-74
2024/03/14 00:10:47;;;;;;;32.20;21.30;;;;;;;4.47;100.00;96680.45;109007;1265;22462;-74
2024/03/14 00:13:15;;;;;;;30.80;22.40;;;;;;;4.51;100.00;96682.77;108998;1256;22510;-73
2024/03/14 00:15:45;;;;;;;30.30;20.60;;;;;;;4.51;100.00;96684.51;109032;1272;22561;-74
2024/03/14 00:18:16;;;;;;;27.70;19.50;;;;;;;4.49;100.00;96684.36;109014;1273;22554;-73
2024/03/14 00:20:44;;;;;;;28.00;21.20;;;;;;;4.48;100.00;96682.20;109040;1272;22459;-73
2024/03/14 00:23:17;;;;;;;29.10;20.00;;;;;;;4.47;100.00;96684.60;109013;1270;22620;-74
2024/03/14 00:25:46;;;;;;;27.80;20.20;;;;;;;4.47;100.00;96685.70;109049;1266;23160;-73
2024/03/14 00:28:14;;;;;;;28.50;19.90;;;;;;;4.46;100.00;96684.27;109015;1273;22563;-74
2024/03/14 00:30:46;;;;;;;30.00;21.10;;;;;;;4.45;100.00;96681.22;109001;1273;22587;-74
2024/03/14 00:33:19;;;;;;;28.10;20.20;;;;;;;4.46;100.00;96675.87;109026;1273;22972;-74
2024/03/14 00:35:49;;;;;;;32.90;22.50;;;;;;;4.46;100.00;96678.90;109045;1272;23806;-74
2024/03/14 00:38:19;;;;;;;33.00;21.90;;;;;;;4.43;100.00;96675.98;109028;1272;22525;-74
2024/03/14 00:40:50;;;;;;;32.40;22.60;;;;;;;4.40;100.00;96678.39;109028;1272;22631;-74
2024/03/14 00:43:19;;;;;;;32.40;22.10;;;;;;;4.37;100.00;96671.94;109003;1272;22511;-74
2024/03/14 00:45:47;;;;;;;32.50;22.30;;;;;;;4.35;100.00;96672.48;109039;1272;22540;-74
2024/03/14 00:48:15;;;;;;;30.10;21.10;;;;;;;4.40;100.00;96669.01;109051;1272;22711;-74
2024/03/14 00:50:46;;;;;;;37.00;26.20;;;;;;;4.45;100.00;96664.35;109036;1272;22579;-74
2024/03/14 00:53:16;;;;;;;32.50;24.40;;;;;;;4.49;100.00;96665.62;109027;1273;22556;-75
2024/03/14 00:55:44;;;;;;;36.30;26.10;;;;;;;4.46;100.00;96667.67;109013;1272;23981;-74
2024/03/14 00:58:12;;;;;;;33.30;24.50;;;;;;;4.38;100.00;96669.86;109033;1272;24360;-74
2024/03/14 01:00:41;;;;;;;24.10;16.80;;;;;;;4.32;100.00;96670.22;108984;1272;22576;-74
2024/03/14 01:03:12;;;;;;;33.80;23.30;;;;;;;4.27;100.00;96668.57;109014;1272;25412;-74
2024/03/14 01:05:44;;;;;;;38.30;24.60;;;;;;;4.21;100.00;96667.20;109055;1272;22666;-74
2024/03/14 01:08:13;;;;;;;38.30;24.10;;;;;;;4.15;100.00;96666.20;109010;1273;22526;-74
2024/03/14 01:10:44;;;;;;;35.20;23.70;;;;;;;4.06;100.00;96660.86;109040;1273;22512;-74
2024/03/14 01:13:12;;;;;;;33.70;22.50;;;;;;;3.95;100.00;96662.64;109029;1273;22521;-74
2024/03/14 01:15:41;;;;;;;31.60;21.60;;;;;;;3.83;100.00;96662.64;109015;1272;22541;-74
2024/03/14 01:18:09;;;;;;;31.40;21.60;;;;;;;3.75;100.00;96660.48;109026;1272;22600;-74
2024/03/14 01:20:38;;;;;;;30.20;21.40;;;;;;;3.72;100.00;96659.17;109015;1273;22540;-73
2024/03/14 01:23:10;;;;;;;30.00;21.90;;;;;;;3.72;100.00;96658.38;108995;1273;22519;-74
2024/03/14 01:25:41;;;;;;;28.80;19.20;;;;;;;3.72;100.00;96656.02;109014;1267;22580;-74
2024/03/14 01:28:10;;;;;;;34.10;23.90;;;;;;;3.75;100.00;96656.13;108979;1273;22469;-74
2024/03/14 01:30:42;;;;;;;35.00;24.10;;;;;;;3.70;100.00;96657.55;109035;1272;22501;-74
2024/03/14 01:33:10;;;;;;;34.00;23.20;;;;;;;3.64;100.00;96661.42;109059;1268;23954;-74
2024/03/14 01:35:38;;;;;;;29.20;20.90;;;;;;;3.62;100.00;96662.48;109065;1273;22519;-73
2024/03/14 01:38:07;;;;;;;31.10;22.00;;;;;;;3.61;100.00;96661.73;108998;1272;22507;-74
2024/03/14 01:40:35;;;;;;;29.10;21.90;;;;;;;3.56;100.00;96658.40;109049;1273;22544;-73
2024/03/14 01:43:04;;;;;;;31.70;21.40;;;;;;;3.53;100.00;96657.66;109014;1272;24184;-73
2024/03/14 01:45:32;;;;;;;32.70;22.20;;;;;;;3.52;100.00;96656.39;109045;1273;22556;-74
2024/03/14 01:48:00;;;;;;;29.40;21.40;;;;;;;3.51;100.00;96657.92;109017;1273;23845;-73
2024/03/14 01:50:29;;;;;;;32.10;21.90;;;;;;;3.47;100.00;96655.70;109087;1272;22519;-74
2024/03/14 01:52:57;;;;;;;30.10;20.80;;;;;;;3.40;100.00;96654.08;108958;1272;22521;-73
2024/03/14 01:55:26;;;;;;;28.60;19.60;;;;;;;3.36;100.00;96653.73;109028;1273;22512;-74
2024/03/14 01:57:58;;;;;;;32.20;21.90;;;;;;;3.35;100.00;96650.50;109034;1266;22519;-74
2024/03/14 02:00:29;;;;;;;32.90;22.20;;;;;;;3.35;100.00;96652.91;109000;1273;22562;-73
2024/03/14 02:02:57;;;;;;;31.50;20.40;;;;;;;3.32;100.00;96652.34;109027;1273;22590;-73
2024/03/14 02:05:26;;;;;;;31.30;20.90;;;;;;;3.27;100.00;96650.98;109087;1272;22567;-74
2024/03/14 02:07:54;;;;;;;31.70;21.40;;;;;;;3.27;100.00;96652.04;109032;1273;23762;-75
2024/03/14 02:10:25;;;;;;;29.90;20.20;;;;;;;3.27;100.00;96650.78;109072;1273;23807;-74
2024/03/14 02:12:57;;;;;;;29.50;21.20;;;;;;;3.30;100.00;96654.23;109000;1270;22510;-74
2024/03/14 02:15:25;;;;;;;30.40;21.90;;;;;;;3.26;100.00;96655.20;109032;1272;22592;-73
2024/03/14 02:17:58;;;;;;;29.70;19.80;;;;;;;3.17;100.00;96654.91;109036;1272;25444;-74
2024/03/14 02:20:26;;;;;;;33.90;21.80;;;;;;;3.13;100.00;96651.44;109091;1273;22537;-74
2024/03/14 02:22:55;;;;;;;35.50;23.80;;;;;;;3.11;100.00;96646.41;108999;1273;25348;-74
2024/03/14 02:25:26;;;;;;;37.10;24.90;;;;;;;3.12;100.00;96645.91;109082;1272;22560;-74
2024/03/14 02:27:56;;;;;;;30.70;20.30;;;;;;;3.11;100.00;96645.78;109021;1254;23291;-74
2024/03/14 02:30:27;;;;;;;32.40;21.00;;;;;;;3.14;100.00;96644.38;109047;1272;22705;-74
2024/03/14 02:32:55;;;;;;;31.80;21.30;;;;;;;3.16;100.00;96646.04;109044;1272;22714;-73
2024/03/14 02:35:23;;;;;;;31.40;22.50;;;;;;;3.15;100.00;96650.25;109085;1272;22458;-74
2024/03/14 02:37:53;;;;;;;26.90;19.10;;;;;;;3.15;100.00;96646.75;109037;1251;22526;-74
2024/03/14 02:40:23;;;;;;;38.60;26.30;;;;;;;3.13;100.00;96644.67;109077;1264;22511;-74
2024/03/14 02:42:51;;;;;;;33.60;23.70;;;;;;;3.08;100.00;96642.23;109070;1272;24209;-73
2024/03/14 02:45:20;;;;;;;31.30;22.10;;;;;;;3.02;100.00;96641.23;109063;1272;22484;-75
2024/03/14 02:47:50;;;;;;;26.30;17.30;;;;;;;2.95;100.00;96640.88;109037;1272;22575;-73
2024/03/14 02:50:22;;;;;;;32.90;20.80;;;;;;;2.92;100.00;96637.95;109063;1272;22473;-74
2024/03/14 02:52:50;;;;;;;30.50;20.40;;;;;;;2.90;100.00;96643.54;109010;1272;23334;-73
2024/03/14 02:55:20;;;;;;;28.70;20.60;;;;;;;2.89;100.00;96645.50;109069;1273;22518;-74
2024/03/14 02:57:48;;;;;;;32.90;21.70;;;;;;;2.90;100.00;96645.84;109054;1273;25236;-73
2024/03/14 03:00:22;;;;;;;33.70;21.90;;;;;;;2.94;100.00;96644.20;109103;1272;25207;-73
2024/03/14 03:02:52;;;;;;;32.70;21.80;;;;;;;2.99;100.00;96643.84;109046;1273;22575;-73
2024/03/14 03:05:21;;;;;;;31.10;22.20;;;;;;;3.03;100.00;96638.33;109070;1272;22507;-74
2024/03/14 03:07:49;;;;;;;28.60;21.10;;;;;;;3.06;100.00;96641.32;109031;1273;22579;-74
2024/03/14 03:10:22;;;;;;;26.30;20.90;;;;;;;3.07;100.00;96641.02;109065;1273;22917;-74
2024/03/14 03:12:50;;;;;;;28.60;20.60;;;;;;;3.11;100.00;96641.33;109037;1269;22555;-74
2024/03/14 03:15:21;;;;;;;30.40;22.00;;;;;;;3.15;100.00;96640.58;109058;1273;22677;-73
2024/03/14 03:17:50;;;;;;;27.40;21.20;;;;;;;3.17;100.00;96645.17;109027;1273;22482;-74
2024/03/14 03:20:19;;;;;;;;;;;;;;;3.21;100.00;96641.41;109103;1272;22585;-74
2024/03/14 03:23:08;;;;;;;31.60;20.50;;;;;;;3.21;100.00;96639.06;109062;1273;22570;-74
2024/03/14 03:25:40;;;;;;;32.50;21.90;;;;;;;3.17;100.00;96632.55;109097;1272;22470;-73
2024/03/14 03:28:10;;;;;;;32.70;22.20;;;;;;;3.12;100.00;96627.05;109079;1270;22648;-73
2024/03/14 03:30:43;;;;;;;33.00;23.90;;;;;;;3.09;100.00;96624.68;109070;1272;22529;-73
2024/03/14 03:33:16;;;;;;;33.90;22.90;;;;;;;3.07;100.00;96627.04;108999;1272;22518;-73
2024/03/14 03:35:45;;;;;;;32.20;22.10;;;;;;;3.10;100.00;96626.28;109060;1273;22511;-74
2024/03/14 03:38:14;;;;;;;27.90;19.90;;;;;;;3.13;100.00;96629.41;109047;1272;22559;-74
2024/03/14 03:40:43;;;;;;;;;;;;;;;3.19;100.00;96627.76;109084;1273;22474;-73
2024/03/14 03:43:12;;;;;;;28.20;19.90;;;;;;;3.23;100.00;96631.25;109072;1270;22513;-73
2024/03/14 03:45:40;;;;;;;29.20;21.10;;;;;;;3.30;100.00;96635.38;109028;1273;25680;-74
2024/03/14 03:48:11;;;;;;;31.70;20.30;;;;;;;3.35;100.00;96636.56;109040;1273;22605;-73
2024/03/14 03:50:40;;;;;;;29.40;20.20;;;;;;;3.37;100.00;96636.72;109030;1273;22482;-74
2024/03/14 03:53:08;;;;;;;29.10;19.40;;;;;;;3.39;100.00;96639.71;109048;1273;22514;-74
2024/03/14 03:55:36;;;;;;;29.60;19.20;;;;;;;3.43;100.00;96637.79;109061;1251;22534;-73
2024/03/14 03:58:06;;;;;;;29.80;21.20;;;;;;;3.41;100.00;96635.40;109060;1273;22935;-73
2024/03/14 04:00:41;;;;;;;29.40;18.70;;;;;;;3.41;100.00;96639.39;109093;1267;22539;-73
2024/03/14 04:03:11;;;;;;;32.00;20.60;;;;;;;3.42;100.00;96639.29;109018;1272;25232;-74
2024/03/14 04:05:42;;;;;;;35.20;23.00;;;;;;;3.40;100.00;96641.55;109039;1273;22537;-74
2024/03/14 04:08:14;;;;;;;30.20;20.50;;;;;;;3.39;100.00;96644.43;109048;1273;22575;-74
2024/03/14 04:10:44;;;;;;;32.60;20.80;;;;;;;3.38;100.00;96641.06;109039;1272;25001;-74
2024/03/14 04:13:15;;;;;;;31.20;19.80;;;;;;;3.37;100.00;96642.11;109061;1272;25240;-74
2024/03/14 04:15:43;;;;;;;32.60;21.60;;;;;;;3.35;100.00;96642.92;109031;1273;22562;-74
2024/03/14 04:18:11;;;;;;;32.80;21.20;;;;;;;3.34;100.00;96644.36;109058;1273;22719;-74
2024/03/14 04:20:40;;;;;;;32.80;21.60;;;;;;;3.33;100.00;96641.20;109057;1269;22530;-74
2024/03/14 04:23:10;;;;;;;27.90;19.50;;;;;;;3.33;100.00;96640.98;109043;1273;22504;-74
2024/03/14 04:25:39;;;;;;;31.00;21.90;;;;;;;3.35;100.00;96643.90;109081;1273;22518;-74
2024/03/14 04:28:07;;;;;;;27.80;18.80;;;;;;;3.40;100.00;96645.58;109076;1267;22472;-74
2024/03/14 04:30:36;;;;;;;32.90;21.80;;;;;;;3.43;100.00;96644.39;109073;1272;22513;-74
2024/03/14 04:33:05;;;;;;;30.60;20.30;;;;;;;3.44;100.00;96647.04;109067;1273;22473;-74
2024/03/14 04:35:36;;;;;;;31.20;21.20;;;;;;;3.43;100.00;96650.69;109053;1273;22559;-74
2024/03/14 04:38:05;;;;;;;28.10;19.50;;;;;;;3.43;100.00;96656.13;109041;1266;23020;-74
2024/03/14 04:40:34;;;;;;;33.20;22.00;;;;;;;3.45;100.00;96655.70;109034;1273;22556;-74
2024/03/14 04:43:07;;;;;;;31.20;19.70;;;;;;;3.48;100.00;96660.85;109067;1273;23534;-74
2024/03/14 04:45:40;;;;;;;32.40;21.40;;;;;;;3.48;100.00;96661.41;109101;1273;25404;-74
2024/03/14 04:48:09;;;;;;;31.20;20.70;;;;;;;3.47;100.00;96663.13;109089;1273;22524;-74
2024/03/14 04:50:39;;;;;;;27.40;18.50;;;;;;;3.51;100.00;96658.70;109061;1273;22497;-74
2024/03/14 04:53:09;;;;;;;29.20;19.10;;;;;;;3.52;100.00;96662.92;109073;1272;24219;-74
2024/03/14 04:55:39;;;;;;;31.30;20.20;;;;;;;3.52;100.00;96663.41;109067;1272;25284;-74
2024/03/14 04:58:08;;;;;;;25.80;17.90;;;;;;;3.53;100.00;96662.23;109082;1272;22528;-74
2024/03/14 05:00:36;;;;;;;25.10;18.70;;;;;;;3.55;100.00;96662.41;109037;1272;22313;-75
2024/03/14 05:03:07;;;;;;;26.50;17.90;;;;;;;3.60;100.00;96663.70;109053;1273;22544;-74
2024/03/14 05:05:36;;;;;;;27.70;18.20;;;;;;;3.62;100.00;96662.75;109069;1272;22943;-74
2024/03/14 05:08:05;;;;;;;30.30;18.70;;;;;;;3.66;100.00;96660.14;109053;1272;22529;-74
2024/03/14 05:10:35;;;;;;;31.90;20.70;;;;;;;3.68;100.00;96662.82;109070;1273;22472;-74
2024/03/14 05:13:06;;;;;;;32.50;21.80;;;;;;;3.67;100.00;96665.98;109044;1270;23569;-74
2024/03/14 05:15:36;;;;;;;34.90;22.50;;;;;;;3.63;100.00;96665.27;109052;1272;22543;-74
2024/03/14 05:18:05;;;;;;;36.40;22.40;;;;;;;3.60;100.00;96668.16;109072;1273;22522;-73
2024/03/14 05:20:34;;;;;;;;;;;;;;;3.57;100.00;96671.00;109118;1273;22545;-73
2024/03/14 05:23:03;;;;;;;37.00;24.40;;;;;;;3.54;100.00;96670.15;109094;1272;22539;-74
2024/03/14 05:25:31;;;;;;;42.70;25.70;;;;;;;3.54;100.00;96671.31;109096;1272;22696;-74
2024/03/14 05:27:59;;;;;;;41.60;24.40;;;;;;;3.54;100.00;96674.34;109121;1267;22539;-74
2024/03/14 05:30:28;;;;;;;36.90;23.80;;;;;;;3.58;100.00;96674.01;109061;1270;25328;-74
2024/03/14 05:32:59;;;;;;;37.90;24.10;;;;;;;3.61;100.00;96672.21;109087;1267;27469;-74
2024/03/14 05:35:28;;;;;;;38.50;22.80;;;;;;;3.64;100.00;96674.10;109098;1272;23629;-74
2024/03/14 05:38:00;;;;;;;38.10;25.00;;;;;;;3.66;100.00;96670.60;109054;1272;22467;-74
2024/03/14 05:40:28;;;;;;;34.60;22.40;;;;;;;3.68;100.00;96672.56;109075;1270;22560;-74
2024/03/14 05:42:57;;;;;;;40.10;22.80;;;;;;;3.72;100.00;96674.27;109056;1272;26589;-74
2024/03/14 05:45:25;;;;;;;37.50;23.40;;;;;;;3.72;100.00;96673.90;109068;1257;22520;-74
2024/03/14 05:47:53;;;;;;;40.50;24.40;;;;;;;3.73;100.00;96679.36;109066;1272;22576;-74
2024/03/14 05:50:22;;;;;;;39.90;23.60;;;;;;;3.74;100.00;96678.56;109061;1273;22517;-74
2024/03/14 05:52:51;;;;;;;32.80;19.10;;;;;;;3.76;100.00;96676.55;109078;1270;22155;-74
2024/03/14 05:55:24;;;;;;;37.80;23.70;;;;;;;3.78;100.00;96682.55;109073;1272;22541;-74
2024/03/14 05:57:52;;;;;;;33.00;19.40;;;;;;;3.83;100.00;96685.18;109091;1271;22484;-74
2024/03/14 06:00:22;;;;;;;31.80;20.60;;;;;;;3.85;100.00;96684.65;109083;1271;22497;-74
2024/03/14 06:02:51;;;;;;;32.40;21.20;;;;;;;3.90;100.00;96686.36;109023;1272;22565;-74
2024/03/14 06:05:22;;;;;;;32.40;22.40;;;;;;;3.97;100.00;96682.42;109062;1270;22537;-74
2024/03/14 06:07:54;;;;;;;35.30;23.20;;;;;;;4.03;100.00;96684.02;109049;1272;22582;-74
2024/03/14 06:10:22;;;;;;;34.30;23.50;;;;;;;4.06;100.00;96684.52;109027;1272;22526;-74
2024/03/14 06:12:51;;;;;;;34.60;23.40;;;;;;;4.12;100.00;96692.60;109073;1267;22487;-74
2024/03/14 06:15:21;;;;;;;35.00;22.40;;;;;;;4.15;100.00;96693.60;109019;1269;22940;-74
2024/03/14 06:17:50;;;;;;;37.10;23.00;;;;;;;4.19;100.00;96689.73;108998;1273;22579;-74
2024/03/14 06:20:19;;;;;;;32.70;21.70;;;;;;;4.23;100.00;96693.48;109034;1256;22624;-74
2024/03/14 06:22:47;;;;;;;33.30;21.20;;;;;;;4.27;100.00;96691.45;109089;1266;24253;-74
2024/03/14 06:25:16;;;;;;;22.30;13.60;;;;;;;4.31;100.00;96693.46;109109;1272;25414;-74
2024/03/14 06:27:44;;;;;;;29.70;20.10;;;;;;;4.33;100.00;96694.64;109085;1267;22476;-74
2024/03/14 06:30:15;;;;;;;32.90;22.00;;;;;;;4.34;100.00;96699.27;109078;1273;22501;-74
2024/03/14 06:32:45;;;;;;;34.70;23.20;;;;;;;4.33;100.00;96701.05;109062;1250;22456;-73
2024/03/14 06:35:14;;;;;;;34.30;22.00;;;;;;;4.33;100.00;96698.52;109090;1273;22511;-74
2024/03/14 06:37:47;;;;;;;31.40;20.10;;;;;;;4.34;100.00;96702.27;109033;1272;22527;-74
2024/03/14 06:40:15;;;;;;;30.40;20.30;;;;;;;4.34;100.00;96704.84;109060;1269;22551;-74
2024/03/14 06:42:49;;;;;;;21.70;15.90;;;;;;;4.36;100.00;96705.41;109104;1272;25734;-74
2024/03/14 06:45:17;;;;;;;31.00;21.30;;;;;;;4.44;100.00;96708.44;109051;1256;22624;-74
2024/03/14 06:47:50;;;;;;;27.70;18.10;;;;;;;4.48;100.00;96707.80;109069;1273;22651;-74
2024/03/14 06:50:19;;;;;;;29.10;20.10;;;;;;;4.55;100.00;96709.05;109062;1272;25435;-74
2024/03/14 06:52:50;;;;;;;30.30;20.50;;;;;;;4.60;100.00;96714.38;109058;1267;22518;-74
2024/03/14 06:55:21;;;;;;;33.40;21.10;;;;;;;4.64;100.00;96709.23;109071;1270;22605;-74
2024/03/14 06:57:52;;;;;;;33.30;21.60;;;;;;;4.68;100.00;96710.59;109066;1269;22722;-74
2024/03/14 07:00:25;;;;;;;34.30;21.90;;;;;;;4.75;100.00;96710.63;109096;1272;22525;-74
2024/03/14 07:02:53;;;;;;;31.10;21.50;;;;;;;4.81;100.00;96711.46;109096;1273;22595;-74
2024/03/14 07:05:25;;;;;;;29.20;20.10;;;;;;;4.85;100.00;96713.73;109101;1270;22471;-74
2024/03/14 07:07:56;;;;;;;31.30;21.30;;;;;;;4.93;100.00;96719.02;109091;1269;22686;-74
2024/03/14 07:10:24;;;;;;;;;;;;;;;5.00;100.00;96721.21;109089;1272;25395;-74
2024/03/14 07:12:57;;;;;;;31.80;21.00;;;;;;;5.05;100.00;96721.08;109100;1250;23105;-74
2024/03/14 07:15:28;;;;;;;29.70;20.50;;;;;;;5.11;100.00;96722.45;109084;1273;22523;-74
2024/03/14 07:17:59;;;;;;;31.40;21.40;;;;;;;5.19;100.00;96724.13;109045;1272;24215;-74
2024/03/14 07:20:35;;;;;;;30.30;20.60;;;;;;;5.28;100.00;96723.10;109100;1273;22531;-74
2024/03/14 07:23:06;;;;;;;31.20;22.00;;;;;;;5.35;100.00;96727.05;109040;1272;25048;-74
2024/03/14 07:25:37;;;;;;;31.50;21.00;;;;;;;5.35;100.00;96727.46;109061;1272;22530;-74
2024/03/14 07:28:09;;;;;;;29.10;20.00;;;;;;;5.32;100.00;96732.41;109067;1264;22527;-74
2024/03/14 07:30:41;;;;;;;34.20;22.00;;;;;;;5.37;100.00;96734.02;109078;1273;24383;-74
2024/03/14 07:33:12;;;;;;;31.50;20.60;;;;;;;5.33;100.00;96735.75;109040;1272;22518;-74
2024/03/14 07:35:45;;;;;;;32.10;20.20;;;;;;;5.29;100.00;96737.79;109048;1273;22536;-74
2024/03/14 07:38:13;;;;;;;33.30;21.70;;;;;;;5.30;100.00;96735.95;109043;1273;22989;-74
2024/03/14 07:40:43;;;;;;;37.60;24.30;;;;;;;5.28;100.00;96736.73;109066;1270;24208;-74
2024/03/14 07:43:12;;;;;;;35.80;23.70;;;;;;;5.27;100.00;96741.17;109057;1272;22498;-74
2024/03/14 07:45:41;;;;;;;37.70;24.20;;;;;;;5.25;100.00;96740.05;109054;1273;22574;-73
2024/03/14 07:48:11;;;;;;;34.20;23.30;;;;;;;5.24;100.00;96742.66;109044;1267;23949;-74
2024/03/14 07:50:41;;;;;;;32.10;22.40;;;;;;;5.29;100.00;96740.14;109092;1272;25407;-74
2024/03/14 07:53:12;;;;;;;32.90;23.30;;;;;;;5.39;100.00;96741.27;109102;1272;22526;-74
2024/03/14 07:55:41;;;;;;;36.90;25.40;;;;;;;5.51;100.00;96745.81;109060;1272;24283;-74
2024/03/14 07:58:12;;;;;;;33.60;23.50;;;;;;;5.57;100.00;96744.80;109064;1267;22550;-74
2024/03/14 08:00:46;;;;;;;35.20;24.30;;;;;;;5.61;100.00;96749.10;109084;1273;22539;-74
2024/03/14 08:03:16;;;;;;;29.60;22.50;;;;;;;5.66;100.00;96750.60;108920;1249;22511;-74
2024/03/14 08:05:50;;;;;;;30.40;23.90;;;;;;;5.77;100.00;96748.27;109037;1272;23222;-75
2024/03/14 08:08:19;;;;;;;34.20;22.70;;;;;;;5.88;100.00;96751.52;109072;1273;22468;-74
2024/03/14 08:10:47;;;;;;;34.60;26.00;;;;;;;5.97;100.00;96753.18;109070;1266;25230;-74
2024/03/14 08:13:20;;;;;;;35.60;26.40;;;;;;;6.05;100.00;96751.84;109084;1273;23637;-74
2024/03/14 08:15:59;;;;;;;34.70;25.70;;;;;;;6.12;100.00;96751.14;109081;1273;22979;-74
2024/03/14 08:18:30;;;;;;;35.40;26.30;;;;;;;6.16;100.00;96749.13;109065;1268;22507;-74
2024/03/14 08:20:58;;;;;;;33.60;25.20;;;;;;;6.21;100.00;96750.69;109105;1265;22511;-74
2024/03/14 08:23:27;;;;;;;32.30;24.40;;;;;;;6.33;100.00;96750.85;109068;1269;22449;-73
2024/03/14 08:25:55;;;;;;;33.80;26.00;;;;;;;6.44;100.00;96750.59;109037;1273;22483;-73
2024/03/14 08:28:25;;;;;;;31.80;24.90;;;;;;;6.44;100.00;96751.55;109098;1273;22468;-73
2024/03/14 08:30:58;;;;;;;38.40;27.80;;;;;;;6.43;100.00;96751.11;109089;1272;22599;-73
2024/03/14 08:33:29;;;;;;;37.50;28.20;;;;;;;6.30;100.00;96752.98;109056;1269;22515;-73
2024/03/14 08:35:57;;;;;;;35.40;25.60;;;;;;;6.21;100.00;96753.26;109089;1270;22549;-74
2024/03/14 08:38:25;;;;;;;37.80;26.80;;;;;;;6.19;100.00;96754.07;109063;1273;22479;-73
2024/03/14 08:40:57;;;;;;;24.80;19.30;;;;;;;6.22;100.00;96751.52;109080;1267;24940;-73
2024/03/14 08:43:25;;;;;;;32.60;25.00;;;;;;;6.30;100.00;96756.50;109062;1272;22539;-73
2024/03/14 08:45:53;;;;;;;39.30;29.10;;;;;;;6.32;100.00;96754.05;109084;1273;22583;-73
2024/03/14 09:29:14;;;;;;;32.90;26.30;;;;;;;7.63;100.00;96740.40;106161;1295;558987;-74
2024/03/14 09:31:45;;;;;;;29.40;24.00;;;;;;;7.71;100.00;96738.48;107719;1284;123757;-74
2024/03/14 09:34:13;;;;;;;28.50;22.80;;;;;;;7.86;100.00;96734.61;107831;1285;22535;-74
2024/03/14 09:36:42;;;;;;;29.90;23.60;;;;;;;8.03;100.00;96735.48;107824;1285;24172;-73
2024/03/14 09:39:18;;;;;;;33.00;26.90;;;;;;;8.14;100.00;96733.23;107815;1284;22539;-73
2024/03/14 09:41:47;;;;;;;30.70;24.10;;;;;;;8.24;100.00;96729.10;107838;1285;23197;-73
2024/03/14 15:02:45;;;;;;;25.50;18.00;;;;;;;7.15;95.08;96678.18;106083;1303;557794;-73
2024/03/14 15:05:14;;;;;;;26.00;18.40;;;;;;;7.18;95.04;96677.06;107488;1285;146390;-73
2024/03/14 15:07:42;;;;;;;27.00;17.80;;;;;;;7.21;95.38;96676.40;107733;1285;23317;-73
2024/03/14 15:10:11;;;;;;;29.90;17.90;;;;;;;7.26;95.48;96674.73;107764;1285;22600;-73
2024/03/14 15:12:40;;;;;;;27.20;18.60;;;;;;;7.30;95.55;96671.38;107721;1285;22540;-73
2024/03/14 15:15:12;;;;;;;26.80;16.90;;;;;;;7.30;95.49;96671.63;107740;1276;22546;-72
2024/03/14 15:17:41;;;;;;;28.20;18.60;;;;;;;7.31;95.51;96671.80;107755;1284;22725;-72
2024/03/14 15:20:13;;;;;;;29.30;18.30;;;;;;;7.27;95.32;96669.66;107709;1285;22568;-73
2024/03/14 15:22:43;;;;;;;29.40;18.10;;;;;;;7.15;95.01;96671.02;107707;1285;22527;-72
2024/03/14 15:25:16;;;;;;;26.00;15.40;;;;;;;7.08;95.32;96668.40;107724;1284;22531;-72
2024/03/14 15:27:48;;;;;;;24.80;16.70;;;;;;;7.00;95.30;96671.50;107752;1285;22531;-72
2024/03/14 15:30:17;;;;;;;27.30;17.70;;;;;;;6.93;95.41;96667.41;107718;1284;22532;-72
2024/03/14 15:32:47;;;;;;;23.70;16.90;;;;;;;6.89;95.66;96665.77;107760;1285;22540;-73
2024/03/14 15:35:16;;;;;;;25.40;17.80;;;;;;;6.89;95.90;96666.25;107758;1284;23017;-72
2024/03/14 15:37:46;;;;;;;26.30;17.20;;;;;;;6.91;96.03;96665.45;107757;1284;22864;-72
2024/03/14 15:40:15;;;;;;;23.90;16.00;;;;;;;6.91;96.09;96664.39;107738;1277;22530;-73
2024/03/14 15:42:46;;;;;;;26.70;16.20;;;;;;;6.92;96.09;96661.13;107740;1285;22546;-73
2024/03/14 15:45:21;;;;;;;24.20;15.20;;;;;;;6.93;96.03;96669.05;107729;1285;24232;-72
2024/03/14 15:47:50;;;;;;;23.10;15.30;;;;;;;6.94;96.25;96666.99;107738;1285;22562;-73
2024/03/14 15:50:21;;;;;;;28.10;17.80;;;;;;;6.93;96.10;96670.52;107708;1284;24245;-72
2024/03/14 15:52:50;;;;;;;27.80;18.50;;;;;;;6.92;96.18;96668.98;107679;1285;22732;-72
2024/03/14 15:55:20;;;;;;;28.60;17.90;;;;;;;6.91;96.21;96671.03;107919;1281;23162;-73
2024/03/14 15:57:49;;;;;;;26.60;17.80;;;;;;;6.89;95.95;96667.94;107947;1281;22844;-73
2024/03/14 16:00:19;;;;;;;27.80;16.60;;;;;;;6.81;95.88;96670.64;107921;1280;22603;-72
2024/03/14 16:02:47;;;;;;;23.70;15.30;;;;;;;6.71;95.68;96668.86;107868;1277;22536;-73
2024/03/14 16:05:18;;;;;;;24.50;15.20;;;;;;;6.66;95.86;96668.16;107937;1281;22524;-72
2024/03/14 16:07:47;;;;;;;24.40;15.90;;;;;;;6.65;95.91;96668.36;107907;1281;24221;-73
2024/03/14 16:10:15;;;;;;;24.90;16.90;;;;;;;6.66;96.24;96667.99;107953;1281;22951;-72
2024/03/14 16:12:44;;;;;;;23.40;15.80;;;;;;;6.68;96.51;96663.32;107863;1279;22654;-73
2024/03/14 16:15:12;;;;;;;25.00;15.60;;;;;;;6.68;96.42;96664.11;108543;1273;22721;-72
2024/03/14 16:17:44;;;;;;;25.00;16.10;;;;;;;6.68;96.33;96666.11;108521;1273;22512;-72
2024/03/14 16:20:26;;;;;;;22.20;14.60;;;;;;;6.67;96.23;96666.90;108567;1274;22527;-72
2024/03/14 16:22:57;;;;;;;22.30;14.70;;;;;;;6.66;96.06;96661.52;108516;1273;22567;-73
2024/03/14 16:25:26;;;;;;;19.60;14.00;;;;;;;6.67;96.50;96661.52;108534;1273;22535;-72
2024/03/14 16:27:55;;;;;;;20.70;14.30;;;;;;;6.67;96.23;96662.89;108474;1266;22570;-72
2024/03/14 16:30:23;;;;;;;20.90;13.70;;;;;;;6.67;96.35;96660.89;108579;1274;22531;-73
2024/03/14 16:32:52;;;;;;;21.20;14.70;;;;;;;6.68;96.52;96657.47;108477;1266;24091;-72
2024/03/14 16:35:28;;;;;;;26.60;16.10;;;;;;;6.68;96.50;96662.79;108576;1273;22541;-72
2024/03/14 16:37:59;;;;;;;23.40;16.00;;;;;;;6.68;96.43;96662.10;108493;1273;25241;-72
2024/03/14 16:40:29;;;;;;;23.10;16.60;;;;;;;6.64;96.49;96662.45;108538;1273;22577;-73
2024/03/14 16:42:58;;;;;;;22.70;15.80;;;;;;;6.63;96.37;96663.91;108501;1273;22592;-72
2024/03/14 16:45:28;;;;;;;24.30;14.70;;;;;;;6.61;96.47;96661.94;108496;1273;22513;-73
2024/03/14 16:47:58;;;;;;;22.20;15.70;;;;;;;6.57;96.31;96660.64;108530;1268;22531;-73
2024/03/14 16:50:27;;;;;;;22.40;15.20;;;;;;;6.56;96.47;96665.42;108521;1273;22568;-72
2024/03/14 16:52:56;;;;;;;20.80;14.00;;;;;;;6.54;96.51;96666.20;108456;1273;24212;-73
2024/03/14 16:55:24;;;;;;;20.00;14.20;;;;;;;6.54;96.68;96668.80;108503;1266;22532;-73
2024/03/14 17:22:14;;;;;;;21.40;15.80;;;;;;;7.13;95.58;96672.77;105310;1305;545850;-73
2024/03/14 17:24:47;;;;;;;23.50;16.00;;;;;;;7.06;95.42;96672.52;107843;1278;24234;-72
2024/03/14 17:27:19;;;;;;;20.70;14.30;;;;;;;6.98;95.49;96671.81;107831;1284;24299;-73
2024/03/14 17:29:53;;;;;;;19.60;14.70;;;;;;;6.92;95.63;96671.04;107836;1281;22525;-72
2024/03/14 17:32:23;;;;;;;19.90;14.10;;;;;;;6.85;95.62;96674.40;107787;1284;22551;-72
2024/03/14 17:34:54;;;;;;;18.30;13.60;;;;;;;6.79;95.82;96675.11;108603;1271;160274;-72
2024/03/14 17:37:26;;;;;;;20.90;14.50;;;;;;;6.72;95.83;96671.88;108758;1272;22543;-72
2024/03/14 17:39:58;;;;;;;21.00;15.80;;;;;;;6.67;96.18;96671.00;108727;1272;22567;-72
2024/03/14 17:42:28;;;;;;;21.00;14.50;;;;;;;6.60;95.99;96671.47;108719;1271;22560;-72
2024/03/14 17:44:59;;;;;;;22.90;15.10;;;;;;;6.52;96.13;96673.05;108813;1268;22523;-72
2024/03/14 17:47:30;;;;;;;20.40;13.60;;;;;;;6.44;96.17;96674.85;108808;1265;22693;-72